Terminal Aerodrome Forecast
Issued by NWS

Home | Current Version | Previous Version | Text Only | Print | Product List | Glossary On
Versions: 1 2 3 4 5 6 7 8 9 10 11 12 13 14 15 16 17
000
FTUS46 KMTR 290536
TAFSNS
TAF
KSNS 290536Z 2906/3006 29006KT 6SM HZ SKC
      TEMPO 2906/2910 4SM BR OVC006
     FM291000 00000KT 6SM BR SKC
      TEMPO 2912/2916 VRB03KT 4SM BR OVC004
     FM291700 VRB03KT P6SM SKC
     FM291900 29009KT P6SM SKC
     FM292100 30013KT P6SM SKC
     FM300500 30006KT P6SM SKC=

USA.gov is the U.S. government's official web portal to all federal, state and local government web resources and services.